sensor_id;sensor_type;location;lat;lon;timestamp;P1;durP1;ratioP1;P2;durP2;ratioP2
11970;SDS011;6045;42.682;23.294;2023-06-14T00:02:00;5.95;;;3.22;;
11970;SDS011;6045;42.682;23.294;2023-06-14T00:04:27;4.95;;;3.30;;
11970;SDS011;6045;42.682;23.294;2023-06-14T00:06:54;4.80;;;2.92;;
11970;SDS011;6045;42.682;23.294;2023-06-14T00:09:21;3.83;;;2.40;;
11970;SDS011;6045;42.682;23.294;2023-06-14T00:11:50;6.75;;;3.63;;
11970;SDS011;6045;42.682;23.294;2023-06-14T00:14:17;4.40;;;3.33;;
11970;SDS011;6045;42.682;23.294;2023-06-14T00:16:44;3.65;;;2.80;;
11970;SDS011;6045;42.682;23.294;2023-06-14T00:19:10;5.15;;;3.22;;
11970;SDS011;6045;42.682;23.294;2023-06-14T00:21:37;6.28;;;3.38;;
11970;SDS011;6045;42.682;23.294;2023-06-14T00:24:05;4.43;;;3.35;;
11970;SDS011;6045;42.682;23.294;2023-06-14T00:26:31;5.25;;;3.00;;
11970;SDS011;6045;42.682;23.294;2023-06-14T00:28:59;4.47;;;3.28;;
11970;SDS011;6045;42.682;23.294;2023-06-14T00:31:26;3.75;;;3.03;;
11970;SDS011;6045;42.682;23.294;2023-06-14T00:33:53;3.72;;;2.95;;
11970;SDS011;6045;42.682;23.294;2023-06-14T00:36:20;4.35;;;2.88;;
11970;SDS011;6045;42.682;23.294;2023-06-14T00:38:47;4.50;;;3.00;;
11970;SDS011;6045;42.682;23.294;2023-06-14T00:41:14;6.78;;;2.92;;
11970;SDS011;6045;42.682;23.294;2023-06-14T00:43:40;4.93;;;2.70;;
11970;SDS011;6045;42.682;23.294;2023-06-14T00:46:09;3.47;;;2.78;;
11970;SDS011;6045;42.682;23.294;2023-06-14T00:48:35;5.03;;;3.13;;
11970;SDS011;6045;42.682;23.294;2023-06-14T00:51:05;4.97;;;3.03;;
11970;SDS011;6045;42.682;23.294;2023-06-14T00:53:32;3.78;;;2.90;;
11970;SDS011;6045;42.682;23.294;2023-06-14T00:56:00;4.57;;;2.58;;
11970;SDS011;6045;42.682;23.294;2023-06-14T00:58:27;3.35;;;2.38;;
11970;SDS011;6045;42.682;23.294;2023-06-14T01:00:54;4.85;;;2.92;;
11970;SDS011;6045;42.682;23.294;2023-06-14T01:03:24;5.00;;;2.83;;
11970;SDS011;6045;42.682;23.294;2023-06-14T01:05:53;4.00;;;2.90;;
11970;SDS011;6045;42.682;23.294;2023-06-14T01:08:28;4.18;;;2.90;;
11970;SDS011;6045;42.682;23.294;2023-06-14T01:11:05;3.65;;;2.85;;
11970;SDS011;6045;42.682;23.294;2023-06-14T01:13:37;3.65;;;2.85;;
11970;SDS011;6045;42.682;23.294;2023-06-14T01:16:07;6.47;;;2.65;;
11970;SDS011;6045;42.682;23.294;2023-06-14T01:18:36;6.63;;;2.75;;
11970;SDS011;6045;42.682;23.294;2023-06-14T01:21:03;3.40;;;2.47;;
11970;SDS011;6045;42.682;23.294;2023-06-14T01:23:32;4.25;;;2.45;;
11970;SDS011;6045;42.682;23.294;2023-06-14T01:25:59;4.18;;;2.78;;
11970;SDS011;6045;42.682;23.294;2023-06-14T01:28:28;3.92;;;2.83;;
11970;SDS011;6045;42.682;23.294;2023-06-14T01:30:59;4.68;;;2.65;;
11970;SDS011;6045;42.682;23.294;2023-06-14T01:33:29;3.13;;;2.22;;
11970;SDS011;6045;42.682;23.294;2023-06-14T01:35:59;3.38;;;2.55;;
11970;SDS011;6045;42.682;23.294;2023-06-14T01:38:27;2.95;;;2.45;;
11970;SDS011;6045;42.682;23.294;2023-06-14T01:40:56;4.95;;;2.70;;
11970;SDS011;6045;42.682;23.294;2023-06-14T01:43:24;3.95;;;2.72;;
11970;SDS011;6045;42.682;23.294;2023-06-14T01:45:53;3.22;;;2.13;;
11970;SDS011;6045;42.682;23.294;2023-06-14T01:48:22;3.42;;;2.53;;
11970;SDS011;6045;42.682;23.294;2023-06-14T01:50:49;2.75;;;2.40;;
11970;SDS011;6045;42.682;23.294;2023-06-14T01:53:16;3.63;;;2.05;;
11970;SDS011;6045;42.682;23.294;2023-06-14T01:55:43;3.40;;;2.58;;
11970;SDS011;6045;42.682;23.294;2023-06-14T01:58:15;3.95;;;2.75;;
11970;SDS011;6045;42.682;23.294;2023-06-14T02:00:42;2.97;;;2.25;;
11970;SDS011;6045;42.682;23.294;2023-06-14T02:03:10;4.13;;;2.97;;
11970;SDS011;6045;42.682;23.294;2023-06-14T02:05:38;3.60;;;2.30;;
11970;SDS011;6045;42.682;23.294;2023-06-14T02:08:05;3.42;;;2.70;;
11970;SDS011;6045;42.682;23.294;2023-06-14T02:10:33;3.83;;;2.30;;
11970;SDS011;6045;42.682;23.294;2023-06-14T02:12:59;4.68;;;3.10;;
11970;SDS011;6045;42.682;23.294;2023-06-14T02:15:28;6.57;;;3.22;;
11970;SDS011;6045;42.682;23.294;2023-06-14T02:17:59;5.38;;;2.97;;
11970;SDS011;6045;42.682;23.294;2023-06-14T02:20:27;3.85;;;3.00;;
11970;SDS011;6045;42.682;23.294;2023-06-14T02:22:54;3.88;;;2.95;;
11970;SDS011;6045;42.682;23.294;2023-06-14T02:25:21;3.95;;;2.88;;
11970;SDS011;6045;42.682;23.294;2023-06-14T02:27:49;4.18;;;3.08;;
11970;SDS011;6045;42.682;23.294;2023-06-14T02:30:16;4.30;;;2.72;;
11970;SDS011;6045;42.682;23.294;2023-06-14T02:32:46;3.25;;;2.40;;
11970;SDS011;6045;42.682;23.294;2023-06-14T02:35:14;3.92;;;2.72;;
11970;SDS011;6045;42.682;23.294;2023-06-14T02:37:41;3.50;;;2.95;;
11970;SDS011;6045;42.682;23.294;2023-06-14T02:40:09;4.55;;;2.88;;
11970;SDS011;6045;42.682;23.294;2023-06-14T02:42:37;3.97;;;2.90;;
11970;SDS011;6045;42.682;23.294;2023-06-14T02:45:04;5.47;;;3.40;;
11970;SDS011;6045;42.682;23.294;2023-06-14T02:47:32;4.80;;;2.90;;
11970;SDS011;6045;42.682;23.294;2023-06-14T02:50:00;4.30;;;2.60;;
11970;SDS011;6045;42.682;23.294;2023-06-14T02:52:28;4.65;;;3.03;;
11970;SDS011;6045;42.682;23.294;2023-06-14T02:54:55;4.90;;;3.28;;
11970;SDS011;6045;42.682;23.294;2023-06-14T02:57:22;4.35;;;2.72;;
11970;SDS011;6045;42.682;23.294;2023-06-14T02:59:49;5.20;;;3.20;;
11970;SDS011;6045;42.682;23.294;2023-06-14T03:02:16;3.95;;;2.75;;
11970;SDS011;6045;42.682;23.294;2023-06-14T03:04:43;5.70;;;3.03;;
11970;SDS011;6045;42.682;23.294;2023-06-14T03:07:13;4.88;;;2.92;;
11970;SDS011;6045;42.682;23.294;2023-06-14T03:09:44;4.70;;;3.00;;
11970;SDS011;6045;42.682;23.294;2023-06-14T03:12:12;4.47;;;2.60;;
11970;SDS011;6045;42.682;23.294;2023-06-14T03:14:40;4.43;;;2.70;;
11970;SDS011;6045;42.682;23.294;2023-06-14T03:17:10;3.80;;;2.70;;
11970;SDS011;6045;42.682;23.294;2023-06-14T03:19:37;4.07;;;2.55;;
11970;SDS011;6045;42.682;23.294;2023-06-14T03:22:06;4.68;;;3.03;;
11970;SDS011;6045;42.682;23.294;2023-06-14T03:24:35;3.92;;;2.90;;
11970;SDS011;6045;42.682;23.294;2023-06-14T03:27:03;4.85;;;3.38;;
11970;SDS011;6045;42.682;23.294;2023-06-14T03:29:30;3.97;;;2.60;;
11970;SDS011;6045;42.682;23.294;2023-06-14T03:31:58;3.22;;;2.90;;
11970;SDS011;6045;42.682;23.294;2023-06-14T03:34:26;4.53;;;3.33;;
11970;SDS011;6045;42.682;23.294;2023-06-14T03:36:53;4.22;;;3.17;;
11970;SDS011;6045;42.682;23.294;2023-06-14T03:39:20;3.83;;;2.90;;
11970;SDS011;6045;42.682;23.294;2023-06-14T03:41:49;3.53;;;2.55;;
11970;SDS011;6045;42.682;23.294;2023-06-14T03:44:16;3.10;;;2.55;;
11970;SDS011;6045;42.682;23.294;2023-06-14T03:46:44;5.78;;;2.92;;
11970;SDS011;6045;42.682;23.294;2023-06-14T03:49:11;4.47;;;2.95;;
11970;SDS011;6045;42.682;23.294;2023-06-14T03:51:38;4.47;;;2.75;;
11970;SDS011;6045;42.682;23.294;2023-06-14T03:54:06;4.97;;;2.80;;
11970;SDS011;6045;42.682;23.294;2023-06-14T03:56:33;2.58;;;2.33;;
11970;SDS011;6045;42.682;23.294;2023-06-14T03:59:01;3.40;;;2.75;;
11970;SDS011;6045;42.682;23.294;2023-06-14T04:01:28;4.95;;;3.28;;
11970;SDS011;6045;42.682;23.294;2023-06-14T04:03:56;2.50;;;2.22;;
11970;SDS011;6045;42.682;23.294;2023-06-14T04:06:23;3.42;;;2.25;;
11970;SDS011;6045;42.682;23.294;2023-06-14T04:08:57;3.08;;;2.10;;
11970;SDS011;6045;42.682;23.294;2023-06-14T04:11:28;3.30;;;2.35;;
11970;SDS011;6045;42.682;23.294;2023-06-14T04:13:56;2.92;;;2.47;;
11970;SDS011;6045;42.682;23.294;2023-06-14T04:16:24;2.90;;;2.58;;
11970;SDS011;6045;42.682;23.294;2023-06-14T04:18:52;2.78;;;2.00;;
11970;SDS011;6045;42.682;23.294;2023-06-14T04:21:20;4.43;;;2.90;;
11970;SDS011;6045;42.682;23.294;2023-06-14T04:23:48;6.22;;;2.70;;
11970;SDS011;6045;42.682;23.294;2023-06-14T04:26:17;2.97;;;2.25;;
11970;SDS011;6045;42.682;23.294;2023-06-14T04:28:45;4.03;;;2.83;;
11970;SDS011;6045;42.682;23.294;2023-06-14T04:31:12;3.67;;;2.80;;
11970;SDS011;6045;42.682;23.294;2023-06-14T04:33:42;3.67;;;2.50;;
11970;SDS011;6045;42.682;23.294;2023-06-14T04:36:11;6.35;;;3.35;;
11970;SDS011;6045;42.682;23.294;2023-06-14T04:38:42;4.03;;;2.78;;
11970;SDS011;6045;42.682;23.294;2023-06-14T04:41:10;4.20;;;3.13;;
11970;SDS011;6045;42.682;23.294;2023-06-14T04:43:37;3.92;;;2.60;;
11970;SDS011;6045;42.682;23.294;2023-06-14T04:46:04;3.85;;;2.92;;
11970;SDS011;6045;42.682;23.294;2023-06-14T04:48:36;4.28;;;3.60;;
11970;SDS011;6045;42.682;23.294;2023-06-14T04:51:07;3.67;;;3.10;;
11970;SDS011;6045;42.682;23.294;2023-06-14T04:53:34;4.40;;;3.03;;
11970;SDS011;6045;42.682;23.294;2023-06-14T04:56:02;4.53;;;3.00;;
11970;SDS011;6045;42.682;23.294;2023-06-14T04:58:29;7.07;;;3.50;;
11970;SDS011;6045;42.682;23.294;2023-06-14T05:00:56;5.05;;;3.40;;
11970;SDS011;6045;42.682;23.294;2023-06-14T05:03:24;5.82;;;3.47;;
11970;SDS011;6045;42.682;23.294;2023-06-14T05:05:52;4.15;;;3.35;;
11970;SDS011;6045;42.682;23.294;2023-06-14T05:08:20;5.32;;;3.38;;
11970;SDS011;6045;42.682;23.294;2023-06-14T05:10:49;4.88;;;3.35;;
11970;SDS011;6045;42.682;23.294;2023-06-14T05:13:16;4.65;;;3.50;;
11970;SDS011;6045;42.682;23.294;2023-06-14T05:15:43;6.15;;;3.60;;
11970;SDS011;6045;42.682;23.294;2023-06-14T05:18:10;5.03;;;3.40;;
11970;SDS011;6045;42.682;23.294;2023-06-14T05:20:38;5.65;;;3.67;;
11970;SDS011;6045;42.682;23.294;2023-06-14T05:23:06;5.97;;;4.10;;
11970;SDS011;6045;42.682;23.294;2023-06-14T05:25:35;4.75;;;3.30;;
11970;SDS011;6045;42.682;23.294;2023-06-14T05:28:01;5.65;;;3.80;;
11970;SDS011;6045;42.682;23.294;2023-06-14T05:30:28;5.53;;;4.05;;
11970;SDS011;6045;42.682;23.294;2023-06-14T05:32:55;5.60;;;4.05;;
11970;SDS011;6045;42.682;23.294;2023-06-14T05:35:22;5.57;;;4.18;;
11970;SDS011;6045;42.682;23.294;2023-06-14T05:37:51;6.13;;;3.90;;
11970;SDS011;6045;42.682;23.294;2023-06-14T05:40:19;5.97;;;4.22;;
11970;SDS011;6045;42.682;23.294;2023-06-14T05:42:47;6.63;;;4.13;;
11970;SDS011;6045;42.682;23.294;2023-06-14T05:45:14;6.35;;;4.43;;
11970;SDS011;6045;42.682;23.294;2023-06-14T05:47:41;5.57;;;4.30;;
11970;SDS011;6045;42.682;23.294;2023-06-14T05:50:08;9.02;;;4.70;;
11970;SDS011;6045;42.682;23.294;2023-06-14T05:52:36;9.40;;;4.53;;
11970;SDS011;6045;42.682;23.294;2023-06-14T05:55:03;5.43;;;4.10;;
11970;SDS011;6045;42.682;23.294;2023-06-14T05:57:31;3.67;;;3.25;;
11970;SDS011;6045;42.682;23.294;2023-06-14T05:59:59;6.30;;;4.80;;
11970;SDS011;6045;42.682;23.294;2023-06-14T06:02:26;7.13;;;4.43;;
11970;SDS011;6045;42.682;23.294;2023-06-14T06:04:52;7.35;;;4.43;;
11970;SDS011;6045;42.682;23.294;2023-06-14T06:07:21;6.63;;;4.57;;
11970;SDS011;6045;42.682;23.294;2023-06-14T06:09:48;5.55;;;4.38;;
11970;SDS011;6045;42.682;23.294;2023-06-14T06:12:14;7.95;;;4.82;;
11970;SDS011;6045;42.682;23.294;2023-06-14T06:14:41;5.78;;;3.80;;
11970;SDS011;6045;42.682;23.294;2023-06-14T06:34:05;5.55;;;4.40;;
11970;SDS011;6045;42.682;23.294;2023-06-14T06:36:32;6.32;;;4.32;;
11970;SDS011;6045;42.682;23.294;2023-06-14T06:38:59;5.90;;;4.10;;
11970;SDS011;6045;42.682;23.294;2023-06-14T06:41:26;9.73;;;4.80;;
11970;SDS011;6045;42.682;23.294;2023-06-14T06:43:53;7.25;;;4.78;;
11970;SDS011;6045;42.682;23.294;2023-06-14T06:46:19;6.40;;;4.93;;
11970;SDS011;6045;42.682;23.294;2023-06-14T06:48:46;5.90;;;4.03;;
11970;SDS011;6045;42.682;23.294;2023-06-14T06:51:14;4.93;;;3.88;;
11970;SDS011;6045;42.682;23.294;2023-06-14T06:53:42;6.97;;;4.88;;
11970;SDS011;6045;42.682;23.294;2023-06-14T06:56:09;6.07;;;4.90;;
11970;SDS011;6045;42.682;23.294;2023-06-14T06:58:39;8.20;;;4.70;;
11970;SDS011;6045;42.682;23.294;2023-06-14T07:01:08;5.90;;;4.78;;
11970;SDS011;6045;42.682;23.294;2023-06-14T07:03:35;6.45;;;4.50;;
11970;SDS011;6045;42.682;23.294;2023-06-14T07:06:02;7.10;;;5.28;;
11970;SDS011;6045;42.682;23.294;2023-06-14T07:08:30;7.63;;;4.78;;
11970;SDS011;6045;42.682;23.294;2023-06-14T07:10:57;10.85;;;6.13;;
11970;SDS011;6045;42.682;23.294;2023-06-14T07:13:24;8.02;;;5.43;;
11970;SDS011;6045;42.682;23.294;2023-06-14T07:15:53;7.35;;;4.95;;
11970;SDS011;6045;42.682;23.294;2023-06-14T07:18:21;7.03;;;4.55;;
11970;SDS011;6045;42.682;23.294;2023-06-14T07:20:47;7.22;;;4.70;;
11970;SDS011;6045;42.682;23.294;2023-06-14T07:23:15;7.53;;;4.90;;
11970;SDS011;6045;42.682;23.294;2023-06-14T07:25:43;7.97;;;5.25;;
11970;SDS011;6045;42.682;23.294;2023-06-14T07:28:10;9.48;;;5.22;;
11970;SDS011;6045;42.682;23.294;2023-06-14T07:30:36;6.95;;;5.35;;
11970;SDS011;6045;42.682;23.294;2023-06-14T07:33:03;7.80;;;5.50;;
11970;SDS011;6045;42.682;23.294;2023-06-14T07:35:31;9.45;;;5.78;;
11970;SDS011;6045;42.682;23.294;2023-06-14T07:37:57;8.90;;;5.78;;
11970;SDS011;6045;42.682;23.294;2023-06-14T07:40:24;10.20;;;5.40;;
11970;SDS011;6045;42.682;23.294;2023-06-14T07:42:52;8.23;;;5.90;;
11970;SDS011;6045;42.682;23.294;2023-06-14T07:45:20;8.55;;;5.65;;
11970;SDS011;6045;42.682;23.294;2023-06-14T07:47:46;8.48;;;6.57;;
11970;SDS011;6045;42.682;23.294;2023-06-14T07:50:13;9.50;;;5.82;;
11970;SDS011;6045;42.682;23.294;2023-06-14T07:52:40;8.90;;;6.07;;
11970;SDS011;6045;42.682;23.294;2023-06-14T07:55:07;8.40;;;6.30;;
11970;SDS011;6045;42.682;23.294;2023-06-14T07:57:34;8.20;;;5.63;;
11970;SDS011;6045;42.682;23.294;2023-06-14T08:00:03;9.32;;;6.28;;
11970;SDS011;6045;42.682;23.294;2023-06-14T08:02:32;7.75;;;6.25;;
11970;SDS011;6045;42.682;23.294;2023-06-14T08:04:59;10.00;;;6.43;;
11970;SDS011;6045;42.682;23.294;2023-06-14T08:07:26;8.60;;;5.90;;
11970;SDS011;6045;42.682;23.294;2023-06-14T08:09:53;9.20;;;5.90;;
11970;SDS011;6045;42.682;23.294;2023-06-14T08:12:20;8.43;;;6.55;;
11970;SDS011;6045;42.682;23.294;2023-06-14T08:14:47;8.23;;;5.47;;
11970;SDS011;6045;42.682;23.294;2023-06-14T08:17:15;6.72;;;5.25;;
11970;SDS011;6045;42.682;23.294;2023-06-14T08:19:42;7.22;;;5.53;;
11970;SDS011;6045;42.682;23.294;2023-06-14T08:22:09;9.90;;;5.75;;
11970;SDS011;6045;42.682;23.294;2023-06-14T08:24:36;7.85;;;5.63;;
11970;SDS011;6045;42.682;23.294;2023-06-14T08:27:04;7.95;;;5.45;;
11970;SDS011;6045;42.682;23.294;2023-06-14T08:29:32;8.82;;;5.70;;
11970;SDS011;6045;42.682;23.294;2023-06-14T08:31:58;10.70;;;5.43;;
11970;SDS011;6045;42.682;23.294;2023-06-14T08:34:26;7.85;;;5.78;;
11970;SDS011;6045;42.682;23.294;2023-06-14T08:36:53;8.30;;;5.32;;
11970;SDS011;6045;42.682;23.294;2023-06-14T08:39:20;9.00;;;5.63;;
11970;SDS011;6045;42.682;23.294;2023-06-14T08:41:47;7.78;;;5.22;;
11970;SDS011;6045;42.682;23.294;2023-06-14T08:44:14;7.03;;;5.43;;
11970;SDS011;6045;42.682;23.294;2023-06-14T08:46:41;6.95;;;5.30;;
11970;SDS011;6045;42.682;23.294;2023-06-14T08:49:10;6.88;;;5.25;;
11970;SDS011;6045;42.682;23.294;2023-06-14T08:51:39;6.70;;;5.70;;
11970;SDS011;6045;42.682;23.294;2023-06-14T08:54:07;7.00;;;5.63;;
11970;SDS011;6045;42.682;23.294;2023-06-14T08:56:34;6.32;;;5.07;;
11970;SDS011;6045;42.682;23.294;2023-06-14T08:59:06;8.20;;;5.93;;
11970;SDS011;6045;42.682;23.294;2023-06-14T09:01:35;8.43;;;5.78;;
11970;SDS011;6045;42.682;23.294;2023-06-14T09:04:03;7.80;;;5.32;;
11970;SDS011;6045;42.682;23.294;2023-06-14T09:06:31;8.63;;;5.32;;
11970;SDS011;6045;42.682;23.294;2023-06-14T09:08:59;8.32;;;5.20;;
11970;SDS011;6045;42.682;23.294;2023-06-14T09:11:27;7.05;;;5.10;;
11970;SDS011;6045;42.682;23.294;2023-06-14T09:13:54;6.18;;;4.53;;
11970;SDS011;6045;42.682;23.294;2023-06-14T09:16:21;6.45;;;4.40;;
11970;SDS011;6045;42.682;23.294;2023-06-14T09:18:47;8.57;;;5.95;;
11970;SDS011;6045;42.682;23.294;2023-06-14T09:21:15;7.43;;;5.03;;
11970;SDS011;6045;42.682;23.294;2023-06-14T09:23:43;7.75;;;4.80;;
11970;SDS011;6045;42.682;23.294;2023-06-14T09:26:13;6.47;;;4.93;;
11970;SDS011;6045;42.682;23.294;2023-06-14T09:28:41;5.78;;;4.38;;
11970;SDS011;6045;42.682;23.294;2023-06-14T09:31:09;7.95;;;4.55;;
11970;SDS011;6045;42.682;23.294;2023-06-14T09:33:37;6.25;;;4.82;;
11970;SDS011;6045;42.682;23.294;2023-06-14T09:36:03;6.18;;;4.80;;
11970;SDS011;6045;42.682;23.294;2023-06-14T09:38:31;6.25;;;4.85;;
11970;SDS011;6045;42.682;23.294;2023-06-14T09:40:58;6.30;;;4.85;;
11970;SDS011;6045;42.682;23.294;2023-06-14T09:43:26;5.80;;;5.13;;
11970;SDS011;6045;42.682;23.294;2023-06-14T09:45:54;7.05;;;5.25;;
11970;SDS011;6045;42.682;23.294;2023-06-14T09:48:21;8.70;;;6.00;;
11970;SDS011;6045;42.682;23.294;2023-06-14T09:50:49;6.57;;;5.13;;
11970;SDS011;6045;42.682;23.294;2023-06-14T09:53:16;5.95;;;4.93;;
11970;SDS011;6045;42.682;23.294;2023-06-14T09:55:49;6.57;;;5.38;;
11970;SDS011;6045;42.682;23.294;2023-06-14T09:58:18;7.40;;;5.47;;
11970;SDS011;6045;42.682;23.294;2023-06-14T10:00:48;7.25;;;5.22;;
11970;SDS011;6045;42.682;23.294;2023-06-14T10:03:19;5.93;;;4.18;;
11970;SDS011;6045;42.682;23.294;2023-06-14T10:05:50;8.38;;;5.68;;
11970;SDS011;6045;42.682;23.294;2023-06-14T10:08:23;5.60;;;4.40;;
11970;SDS011;6045;42.682;23.294;2023-06-14T10:11:02;6.30;;;5.07;;
11970;SDS011;6045;42.682;23.294;2023-06-14T10:13:30;7.47;;;5.22;;
11970;SDS011;6045;42.682;23.294;2023-06-14T10:16:05;10.30;;;5.63;;
11970;SDS011;6045;42.682;23.294;2023-06-14T10:18:40;7.20;;;5.53;;
11970;SDS011;6045;42.682;23.294;2023-06-14T10:21:16;6.30;;;5.35;;
11970;SDS011;6045;42.682;23.294;2023-06-14T10:23:48;8.82;;;6.28;;
11970;SDS011;6045;42.682;23.294;2023-06-14T10:26:19;7.22;;;5.13;;
11970;SDS011;6045;42.682;23.294;2023-06-14T10:28:56;8.52;;;6.20;;
11970;SDS011;6045;42.682;23.294;2023-06-14T10:34:09;8.23;;;5.13;;
11970;SDS011;6045;42.682;23.294;2023-06-14T10:36:37;7.10;;;5.82;;
11970;SDS011;6045;42.682;23.294;2023-06-14T10:39:07;6.60;;;5.00;;
11970;SDS011;6045;42.682;23.294;2023-06-14T10:41:37;6.90;;;5.22;;
11970;SDS011;6045;42.682;23.294;2023-06-14T10:47:09;8.40;;;6.57;;
11970;SDS011;6045;42.682;23.294;2023-06-14T10:49:38;7.03;;;5.40;;
11970;SDS011;6045;42.682;23.294;2023-06-14T10:52:08;6.55;;;4.97;;
11970;SDS011;6045;42.682;23.294;2023-06-14T10:57:27;8.52;;;5.32;;
11970;SDS011;6045;42.682;23.294;2023-06-14T10:59:54;7.38;;;5.47;;
11970;SDS011;6045;42.682;23.294;2023-06-14T11:02:33;7.15;;;5.35;;
11970;SDS011;6045;42.682;23.294;2023-06-14T11:05:14;6.03;;;5.18;;
11970;SDS011;6045;42.682;23.294;2023-06-14T11:07:43;6.32;;;4.43;;
11970;SDS011;6045;42.682;23.294;2023-06-14T11:10:24;8.10;;;4.90;;
11970;SDS011;6045;42.682;23.294;2023-06-14T11:13:00;7.78;;;5.07;;
11970;SDS011;6045;42.682;23.294;2023-06-14T11:15:30;9.50;;;6.00;;
11970;SDS011;6045;42.682;23.294;2023-06-14T11:17:58;6.75;;;5.03;;
11970;SDS011;6045;42.682;23.294;2023-06-14T11:20:29;6.53;;;4.68;;
11970;SDS011;6045;42.682;23.294;2023-06-14T11:22:57;6.85;;;4.93;;
11970;SDS011;6045;42.682;23.294;2023-06-14T11:25:24;7.68;;;4.78;;
11970;SDS011;6045;42.682;23.294;2023-06-14T11:27:53;6.55;;;5.25;;
11970;SDS011;6045;42.682;23.294;2023-06-14T11:30:20;7.10;;;4.95;;
11970;SDS011;6045;42.682;23.294;2023-06-14T11:32:48;6.47;;;5.10;;
11970;SDS011;6045;42.682;23.294;2023-06-14T11:35:18;6.95;;;5.07;;
11970;SDS011;6045;42.682;23.294;2023-06-14T11:37:48;5.95;;;4.75;;
11970;SDS011;6045;42.682;23.294;2023-06-14T11:40:17;6.25;;;4.20;;
11970;SDS011;6045;42.682;23.294;2023-06-14T11:42:44;6.88;;;5.28;;
11970;SDS011;6045;42.682;23.294;2023-06-14T11:45:11;7.28;;;5.13;;
11970;SDS011;6045;42.682;23.294;2023-06-14T11:47:39;6.60;;;4.95;;
11970;SDS011;6045;42.682;23.294;2023-06-14T11:50:06;6.50;;;4.75;;
11970;SDS011;6045;42.682;23.294;2023-06-14T11:52:35;4.35;;;3.72;;
11970;SDS011;6045;42.682;23.294;2023-06-14T11:55:03;5.30;;;3.90;;
11970;SDS011;6045;42.682;23.294;2023-06-14T11:57:33;7.13;;;5.13;;
11970;SDS011;6045;42.682;23.294;2023-06-14T12:00:02;7.07;;;4.72;;
11970;SDS011;6045;42.682;23.294;2023-06-14T12:02:32;6.70;;;4.88;;
11970;SDS011;6045;42.682;23.294;2023-06-14T12:05:03;6.15;;;4.57;;
11970;SDS011;6045;42.682;23.294;2023-06-14T12:07:33;7.38;;;4.97;;
11970;SDS011;6045;42.682;23.294;2023-06-14T12:10:08;4.97;;;4.35;;
11970;SDS011;6045;42.682;23.294;2023-06-14T12:12:36;5.13;;;3.97;;
11970;SDS011;6045;42.682;23.294;2023-06-14T12:15:04;4.78;;;3.80;;
11970;SDS011;6045;42.682;23.294;2023-06-14T12:17:32;5.88;;;4.45;;
11970;SDS011;6045;42.682;23.294;2023-06-14T12:20:04;5.95;;;4.10;;
11970;SDS011;6045;42.682;23.294;2023-06-14T12:22:35;4.88;;;4.07;;
11970;SDS011;6045;42.682;23.294;2023-06-14T12:25:03;4.95;;;4.35;;
11970;SDS011;6045;42.682;23.294;2023-06-14T12:27:32;5.97;;;4.10;;
11970;SDS011;6045;42.682;23.294;2023-06-14T12:29:59;5.25;;;4.38;;
11970;SDS011;6045;42.682;23.294;2023-06-14T12:32:26;5.18;;;4.13;;
11970;SDS011;6045;42.682;23.294;2023-06-14T12:34:53;6.32;;;3.88;;
11970;SDS011;6045;42.682;23.294;2023-06-14T12:37:20;6.15;;;3.88;;
11970;SDS011;6045;42.682;23.294;2023-06-14T12:39:47;4.38;;;3.80;;
11970;SDS011;6045;42.682;23.294;2023-06-14T12:42:16;4.55;;;4.00;;
11970;SDS011;6045;42.682;23.294;2023-06-14T12:44:44;5.05;;;3.97;;
11970;SDS011;6045;42.682;23.294;2023-06-14T12:47:11;4.28;;;3.55;;
11970;SDS011;6045;42.682;23.294;2023-06-14T12:49:38;5.25;;;3.78;;
11970;SDS011;6045;42.682;23.294;2023-06-14T12:52:07;4.68;;;3.53;;
11970;SDS011;6045;42.682;23.294;2023-06-14T12:54:34;5.30;;;3.83;;
11970;SDS011;6045;42.682;23.294;2023-06-14T12:57:01;4.43;;;3.72;;
11970;SDS011;6045;42.682;23.294;2023-06-14T12:59:28;5.10;;;3.90;;
11970;SDS011;6045;42.682;23.294;2023-06-14T13:02:00;5.00;;;3.70;;
11970;SDS011;6045;42.682;23.294;2023-06-14T13:04:37;4.40;;;3.30;;
11970;SDS011;6045;42.682;23.294;2023-06-14T13:07:04;5.00;;;3.63;;
11970;SDS011;6045;42.682;23.294;2023-06-14T13:09:31;5.15;;;4.10;;
11970;SDS011;6045;42.682;23.294;2023-06-14T13:11:58;5.90;;;3.85;;
11970;SDS011;6045;42.682;23.294;2023-06-14T13:14:25;5.75;;;4.28;;
11970;SDS011;6045;42.682;23.294;2023-06-14T13:16:52;4.75;;;4.03;;
11970;SDS011;6045;42.682;23.294;2023-06-14T13:19:20;4.40;;;3.20;;
11970;SDS011;6045;42.682;23.294;2023-06-14T13:21:47;7.25;;;4.10;;
11970;SDS011;6045;42.682;23.294;2023-06-14T13:24:14;5.32;;;3.95;;
11970;SDS011;6045;42.682;23.294;2023-06-14T13:26:41;4.40;;;3.55;;
11970;SDS011;6045;42.682;23.294;2023-06-14T13:29:08;6.57;;;3.97;;
11970;SDS011;6045;42.682;23.294;2023-06-14T13:31:35;6.03;;;3.55;;
11970;SDS011;6045;42.682;23.294;2023-06-14T13:34:02;4.40;;;3.88;;
11970;SDS011;6045;42.682;23.294;2023-06-14T13:36:31;4.40;;;3.28;;
11970;SDS011;6045;42.682;23.294;2023-06-14T13:38:57;7.07;;;3.33;;
11970;SDS011;6045;42.682;23.294;2023-06-14T13:41:25;4.80;;;3.42;;
11970;SDS011;6045;42.682;23.294;2023-06-14T13:43:56;6.00;;;4.05;;
11970;SDS011;6045;42.682;23.294;2023-06-14T13:46:24;5.05;;;3.05;;
11970;SDS011;6045;42.682;23.294;2023-06-14T13:48:51;5.55;;;3.58;;
11970;SDS011;6045;42.682;23.294;2023-06-14T13:51:18;6.22;;;3.72;;
11970;SDS011;6045;42.682;23.294;2023-06-14T13:53:47;6.70;;;3.60;;
11970;SDS011;6045;42.682;23.294;2023-06-14T13:56:14;5.93;;;3.80;;
11970;SDS011;6045;42.682;23.294;2023-06-14T13:58:41;4.85;;;4.20;;
11970;SDS011;6045;42.682;23.294;2023-06-14T14:01:08;6.28;;;4.32;;
11970;SDS011;6045;42.682;23.294;2023-06-14T14:03:35;4.70;;;4.05;;
11970;SDS011;6045;42.682;23.294;2023-06-14T14:06:02;5.15;;;3.42;;
11970;SDS011;6045;42.682;23.294;2023-06-14T14:08:30;7.22;;;3.88;;
11970;SDS011;6045;42.682;23.294;2023-06-14T14:10:59;8.25;;;4.57;;
11970;SDS011;6045;42.682;23.294;2023-06-14T14:13:26;5.20;;;3.88;;
11970;SDS011;6045;42.682;23.294;2023-06-14T14:15:52;6.30;;;4.00;;
11970;SDS011;6045;42.682;23.294;2023-06-14T14:18:19;5.47;;;4.10;;
11970;SDS011;6045;42.682;23.294;2023-06-14T14:20:46;5.53;;;4.05;;
11970;SDS011;6045;42.682;23.294;2023-06-14T14:23:14;4.95;;;3.70;;
11970;SDS011;6045;42.682;23.294;2023-06-14T14:25:40;6.40;;;4.20;;
11970;SDS011;6045;42.682;23.294;2023-06-14T14:28:09;5.45;;;4.25;;
11970;SDS011;6045;42.682;23.294;2023-06-14T14:30:36;4.60;;;3.75;;
11970;SDS011;6045;42.682;23.294;2023-06-14T14:33:04;5.35;;;3.60;;
11970;SDS011;6045;42.682;23.294;2023-06-14T14:35:32;4.93;;;3.38;;
11970;SDS011;6045;42.682;23.294;2023-06-14T14:37:59;4.65;;;3.40;;
11970;SDS011;6045;42.682;23.294;2023-06-14T14:40:28;4.13;;;2.58;;
11970;SDS011;6045;42.682;23.294;2023-06-14T14:42:55;3.90;;;2.95;;
11970;SDS011;6045;42.682;23.294;2023-06-14T14:45:23;4.80;;;3.58;;
11970;SDS011;6045;42.682;23.294;2023-06-14T14:47:50;4.72;;;3.45;;
11970;SDS011;6045;42.682;23.294;2023-06-14T14:50:16;4.40;;;3.42;;
11970;SDS011;6045;42.682;23.294;2023-06-14T14:52:43;3.80;;;2.97;;
11970;SDS011;6045;42.682;23.294;2023-06-14T14:55:10;5.25;;;3.42;;
11970;SDS011;6045;42.682;23.294;2023-06-14T14:57:37;5.55;;;3.53;;
11970;SDS011;6045;42.682;23.294;2023-06-14T15:00:05;6.18;;;3.92;;
11970;SDS011;6045;42.682;23.294;2023-06-14T15:02:34;5.15;;;3.45;;
11970;SDS011;6045;42.682;23.294;2023-06-14T15:05:01;3.67;;;3.10;;
11970;SDS011;6045;42.682;23.294;2023-06-14T15:07:28;4.38;;;3.28;;
11970;SDS011;6045;42.682;23.294;2023-06-14T15:09:55;6.40;;;3.47;;
11970;SDS011;6045;42.682;23.294;2023-06-14T15:12:22;4.22;;;3.22;;
11970;SDS011;6045;42.682;23.294;2023-06-14T15:14:49;5.20;;;3.72;;
11970;SDS011;6045;42.682;23.294;2023-06-14T15:17:17;4.68;;;3.40;;
11970;SDS011;6045;42.682;23.294;2023-06-14T15:19:46;5.93;;;3.70;;